Time;durP1;ratioP1;P1;durP2;ratioP2;P2;SDS_P1;SDS_P2;PMS_P1;PMS_P2;Temp;Humidity;BMP_temperature;BMP_pressure;BME280_temperature;BME280_humidity;BME280_pressure;Samples;Min_cycle;Max_cycle;Signal;HPM_P1;HPM_P2
2023/01/18 00:00:27;;;;;;;140.88;22.33;;;6.90;94.50;;;;;;5104966;28;20020;-56
2023/01/18 00:02:53;;;;;;;126.43;22.85;;;6.90;94.60;;;;;;5104960;28;20036;-56
2023/01/18 00:05:21;;;;;;;114.57;20.73;;;6.80;94.60;;;;;;5103682;28;20020;-56
2023/01/18 00:07:47;;;;;;;127.82;20.50;;;6.80;94.60;;;;;;5103474;28;20036;-57
2023/01/18 00:10:12;;;;;;;110.20;19.90;;;6.80;94.60;;;;;;5103632;28;20024;-55
2023/01/18 00:12:38;;;;;;;111.15;19.38;;;6.80;94.50;;;;;;5103758;28;20024;-56
2023/01/18 00:15:04;;;;;;;91.55;18.77;;;6.80;94.50;;;;;;5104745;28;20028;-56
2023/01/18 00:17:30;;;;;;;118.20;20.60;;;6.80;94.50;;;;;;5104920;28;20550;-56
2023/01/18 00:19:55;;;;;;;91.25;18.60;;;6.80;94.50;;;;;;5104856;28;20146;-56
2023/01/18 00:22:21;;;;;;;92.20;17.23;;;6.80;94.50;;;;;;5104782;28;20051;-57
2023/01/18 00:24:46;;;;;;;104.90;16.85;;;6.80;94.40;;;;;;5103420;28;20051;-56
2023/01/18 00:27:12;;;;;;;86.88;17.35;;;6.80;94.40;;;;;;5086180;28;20058;-56
2023/01/18 00:29:37;;;;;;;80.72;16.67;;;6.70;94.30;;;;;;5103188;28;20028;-56
2023/01/18 00:32:03;;;;;;;79.32;16.90;;;6.70;94.30;;;;;;5103617;28;20062;-56
2023/01/18 00:34:29;;;;;;;87.30;18.70;;;6.70;94.40;;;;;;5103212;28;20016;-56
2023/01/18 00:36:55;;;;;;;75.68;17.05;;;6.70;94.40;;;;;;5103180;28;20038;-57
2023/01/18 00:39:20;;;;;;;74.28;16.52;;;6.70;94.50;;;;;;5103403;28;20035;-56
2023/01/18 00:44:30;;;;;;;67.07;15.77;;;6.70;94.50;;;;;;5103788;28;20079;-56
2023/01/18 00:46:56;;;;;;;80.80;15.52;;;6.60;94.50;;;;;;5103084;28;20104;-56
2023/01/18 00:49:22;;;;;;;75.60;16.15;;;6.60;94.50;;;;;;5103467;28;20035;-56
2023/01/18 00:51:47;;;;;;;51.17;14.35;;;6.60;94.40;;;;;;5104674;28;20047;-56
2023/01/18 00:54:13;;;;;;;70.32;15.02;;;6.60;94.40;;;;;;5103188;28;20027;-56
2023/01/18 00:56:38;;;;;;;67.55;15.18;;;6.60;94.40;;;;;;5106715;28;20105;-56
2023/01/18 00:59:04;;;;;;;66.32;15.27;;;6.60;94.40;;;;;;5107137;28;20016;-56
2023/01/18 01:01:30;;;;;;;59.08;13.98;;;6.60;94.30;;;;;;5089726;28;20460;-56
2023/01/18 01:06:45;;;;;;;57.10;15.20;;;6.50;94.30;;;;;;5107744;28;20081;-56
2023/01/18 01:09:16;;;;;;;53.50;13.52;;;6.50;94.30;;;;;;5108093;28;20020;-56
2023/01/18 01:12:31;;;;;;;50.75;13.65;;;6.40;94.40;;;;;;5106600;28;20035;-56
2023/01/18 01:28:08;;;;;;;43.72;11.45;;;6.40;94.60;;;;;;5070794;28;20059;-56
2023/01/18 01:30:33;;;;;;;51.63;11.38;;;6.30;94.60;;;;;;5085061;28;20032;-56
2023/01/18 01:32:59;;;;;;;34.78;10.55;;;6.30;94.60;;;;;;5068129;28;20036;-56
2023/01/18 01:35:24;;;;;;;42.83;10.90;;;6.30;94.60;;;;;;5068313;28;20051;-56
2023/01/18 01:37:50;;;;;;;39.97;10.98;;;6.30;94.60;;;;;;5084632;28;20032;-56
2023/01/18 01:40:16;;;;;;;26.55;9.23;;;6.30;94.50;;;;;;5084636;28;20036;-56
2023/01/18 01:42:41;;;;;;;38.30;10.18;;;6.30;94.50;;;;;;5084891;28;20029;-56
2023/01/18 01:45:07;;;;;;;30.98;10.23;;;6.30;94.50;;;;;;5079566;28;20044;-56
2023/01/18 01:47:38;;;;;;;37.03;10.05;;;6.30;94.50;;;;;;5105705;28;20095;-56
2023/01/18 01:50:17;;;;;;;37.60;9.68;;;6.30;94.60;;;;;;5106059;28;20059;-56
2023/01/18 01:52:44;;;;;;;33.78;8.93;;;6.30;94.60;;;;;;5088893;28;20107;-56
2023/01/18 01:55:23;;;;;;;26.05;9.65;;;6.20;94.60;;;;;;5106127;28;20083;-56
2023/01/18 01:57:55;;;;;;;46.47;9.88;;;6.20;94.60;;;;;;5105767;28;20087;-56
2023/01/18 02:00:23;;;;;;;27.40;9.43;;;6.20;94.80;;;;;;5105964;28;20051;-56
2023/01/18 02:02:59;;;;;;;28.67;8.60;;;6.20;94.50;;;;;;5105804;28;20032;-56
2023/01/18 02:05:25;;;;;;;26.13;9.30;;;6.20;94.50;;;;;;5105306;28;20054;-56
2023/01/18 02:07:51;;;;;;;25.98;9.18;;;6.20;94.50;;;;;;5105533;28;20032;-56
2023/01/18 02:10:16;;;;;;;21.90;8.60;;;6.20;94.50;;;;;;5088438;28;20020;-56
2023/01/18 02:12:44;;;;;;;24.30;8.73;;;6.20;94.50;;;;;;5105296;28;20046;-56
2023/01/18 02:15:10;;;;;;;37.65;10.02;;;6.20;94.50;;;;;;5105371;28;20024;-56
2023/01/18 02:17:45;;;;;;;32.35;9.25;;;6.10;94.60;;;;;;5104841;28;20058;-55
2023/01/18 02:20:24;;;;;;;;;;;6.20;94.60;;;;;;5106115;28;20427;-56
2023/01/18 02:23:09;;;;;;;31.08;9.25;;;6.20;94.50;;;;;;5105431;28;19971;-56
2023/01/18 02:25:38;;;;;;;34.25;9.35;;;6.20;94.40;;;;;;5105475;28;20051;-56
2023/01/18 02:28:06;;;;;;;23.23;7.75;;;6.10;94.40;;;;;;5106618;28;20058;-56
2023/01/18 02:30:42;;;;;;;23.50;7.65;;;6.10;94.30;;;;;;5106525;28;20028;-56
2023/01/18 02:33:11;;;;;;;24.58;7.78;;;6.10;94.30;;;;;;5105163;28;20036;-56
2023/01/18 02:35:58;;;;;;;19.75;7.75;;;6.10;94.40;;;;;;5105234;28;20044;-56
2023/01/18 02:38:32;;;;;;;25.08;7.85;;;6.00;94.30;;;;;;5104983;28;20537;-56
2023/01/18 02:41:07;;;;;;;18.95;7.82;;;6.10;94.40;;;;;;5088008;28;20132;-56
2023/01/18 02:46:35;;;;;;;16.98;6.50;;;6.00;94.40;;;;;;5105320;28;20058;-56
2023/01/18 02:49:08;;;;;;;17.67;6.93;;;6.00;94.40;;;;;;5104951;28;20028;-56
2023/01/18 02:51:34;;;;;;;17.67;6.57;;;6.10;94.40;;;;;;5104845;28;20031;-56
2023/01/18 02:54:00;;;;;;;16.38;5.35;;;6.00;94.40;;;;;;5104862;28;20019;-56
2023/01/18 02:56:45;;;;;;;21.42;6.68;;;6.00;94.40;;;;;;5087710;28;20543;-56
2023/01/18 02:59:27;;;;;;;19.23;5.90;;;6.00;94.40;;;;;;5104765;28;20093;-56
2023/01/18 03:02:19;;;;;;;14.38;5.90;;;6.00;94.30;;;;;;5104712;28;20055;-55
2023/01/18 03:04:53;;;;;;;14.57;5.88;;;6.00;94.30;;;;;;5101064;28;20028;-56
2023/01/18 03:07:28;;;;;;;22.95;6.38;;;6.00;94.30;;;;;;5104518;28;20044;-56
2023/01/18 03:09:54;;;;;;;12.95;5.32;;;6.00;94.30;;;;;;5087479;28;20047;-56
2023/01/18 03:12:44;;;;;;;21.20;6.07;;;6.00;94.30;;;;;;5104205;28;20028;-56
2023/01/18 03:15:19;;;;;;;15.50;5.30;;;5.90;94.30;;;;;;5104476;28;20016;-56
2023/01/18 03:17:52;;;;;;;13.30;5.47;;;6.00;94.40;;;;;;5105351;28;20032;-56
2023/01/18 03:20:26;;;;;;;17.48;5.55;;;6.00;94.40;;;;;;5104380;28;20262;-56
2023/01/18 03:25:45;;;;;;;12.00;5.45;;;5.90;94.40;;;;;;5104095;28;20074;-56
2023/01/18 03:33:48;;;;;;;11.70;5.10;;;5.90;94.40;;;;;;5104331;28;20050;-56
2023/01/18 03:36:26;;;;;;;14.57;5.35;;;5.90;94.40;;;;;;5104088;28;20024;-56
2023/01/18 03:39:06;;;;;;;13.68;5.18;;;5.90;94.40;;;;;;5103960;28;20086;-56
2023/01/18 03:41:34;;;;;;;10.52;5.05;;;5.90;94.50;;;;;;5104016;28;20039;-56
2023/01/18 03:44:02;;;;;;;10.48;5.05;;;5.90;94.50;;;;;;5103787;28;20028;-56
2023/01/18 03:46:29;;;;;;;11.57;5.18;;;5.90;94.50;;;;;;5103806;28;20024;-56
2023/01/18 03:48:55;;;;;;;12.93;5.10;;;5.90;94.40;;;;;;5103702;28;20028;-56
2023/01/18 03:51:46;;;;;;;9.20;4.93;;;5.90;94.40;;;;;;5103937;28;20432;-56
2023/01/18 03:54:29;;;;;;;13.38;5.38;;;5.90;94.40;;;;;;5104313;28;20028;-56
2023/01/18 03:57:01;;;;;;;11.38;5.35;;;5.90;94.40;;;;;;5103653;28;20058;-56
2023/01/18 03:59:30;;;;;;;13.73;5.28;;;6.00;94.60;;;;;;5103608;28;20024;-56
2023/01/18 04:01:56;;;;;;;12.13;5.20;;;6.00;94.60;;;;;;5103672;28;20040;-56
2023/01/18 04:04:21;;;;;;;13.80;5.28;;;6.00;94.70;;;;;;5103649;28;20024;-56
2023/01/18 04:06:47;;;;;;;16.80;4.68;;;6.00;94.80;;;;;;5103751;28;20028;-56
2023/01/18 04:09:12;;;;;;;14.27;5.78;;;6.00;95.10;;;;;;5103688;28;20051;-56
2023/01/18 04:11:38;;;;;;;14.50;5.93;;;6.00;94.80;;;;;;5104796;28;20016;-57
2023/01/18 04:14:04;;;;;;;12.35;5.57;;;6.00;94.90;;;;;;5104015;28;20062;-56
2023/01/18 04:16:29;;;;;;;19.15;6.10;;;6.00;95.00;;;;;;5104782;28;20099;-56
2023/01/18 04:18:55;;;;;;;15.80;5.40;;;6.00;95.00;;;;;;5105000;28;20077;-56
2023/01/18 04:21:20;;;;;;;10.45;5.70;;;6.00;95.10;;;;;;5103764;28;20127;-56
2023/01/18 04:23:46;;;;;;;9.98;5.15;;;6.00;95.20;;;;;;5105041;28;20088;-56
2023/01/18 04:26:14;;;;;;;14.32;5.63;;;6.00;95.20;;;;;;5105181;28;20047;-56
2023/01/18 04:28:39;;;;;;;11.73;5.10;;;6.00;95.30;;;;;;5103621;28;20473;-56
2023/01/18 04:31:05;;;;;;;14.25;6.78;;;6.00;95.40;;;;;;5106218;28;20013;-61
2023/01/18 04:33:30;;;;;;;10.48;6.03;;;6.00;95.40;;;;;;5107489;28;20050;-56
2023/01/18 04:35:56;;;;;;;10.50;6.10;;;6.10;95.40;;;;;;5107333;28;20020;-56
2023/01/18 04:38:21;;;;;;;88.82;12.23;;;6.00;95.40;;;;;;5107262;28;20040;-56
2023/01/18 04:40:47;;;;;;;64.18;10.55;;;6.10;95.50;;;;;;5108866;28;20034;-56
2023/01/18 04:43:12;;;;;;;41.28;8.60;;;6.10;95.50;;;;;;5108367;28;20061;-56
2023/01/18 04:45:38;;;;;;;36.72;8.73;;;6.10;95.40;;;;;;5107363;28;20444;-56
2023/01/18 04:48:04;;;;;;;28.40;7.57;;;6.10;95.60;;;;;;5106869;28;20036;-56
2023/01/18 04:50:29;;;;;;;30.85;7.57;;;6.10;95.70;;;;;;5107025;28;20021;-56
2023/01/18 04:52:55;;;;;;;30.92;7.53;;;6.10;95.70;;;;;;5106891;28;20082;-56
2023/01/18 04:55:21;;;;;;;31.92;6.80;;;6.10;95.70;;;;;;5106874;28;20054;-56
2023/01/18 04:57:55;;;;;;;29.90;7.60;;;6.10;95.70;;;;;;5106895;28;20052;-56
2023/01/18 05:00:21;;;;;;;36.42;7.32;;;6.10;95.70;;;;;;5106870;28;20054;-56
2023/01/18 05:02:47;;;;;;;30.75;7.43;;;6.10;95.80;;;;;;5107260;28;20087;-56
2023/01/18 05:05:12;;;;;;;21.65;6.30;;;6.10;95.80;;;;;;5108231;28;20035;-56
2023/01/18 05:07:38;;;;;;;29.42;7.20;;;6.10;95.90;;;;;;5107970;28;20444;-56
2023/01/18 05:10:04;;;;;;;21.60;6.70;;;6.10;95.90;;;;;;5106687;28;20012;-56
2023/01/18 05:12:29;;;;;;;24.58;6.38;;;6.10;96.00;;;;;;5089435;28;20053;-56
2023/01/18 05:14:55;;;;;;;26.90;6.55;;;6.20;96.00;;;;;;5106588;28;20023;-56
2023/01/18 05:17:21;;;;;;;30.85;7.20;;;6.20;95.90;;;;;;5106379;28;20490;-56
2023/01/18 05:19:50;;;;;;;23.92;6.28;;;6.20;95.80;;;;;;5107953;28;20081;-55
2023/01/18 05:22:15;;;;;;;21.83;5.82;;;6.10;95.70;;;;;;5106706;28;20032;-56
2023/01/18 05:24:41;;;;;;;25.13;6.60;;;6.20;95.70;;;;;;5106493;28;20116;-56
2023/01/18 05:27:07;;;;;;;37.42;7.00;;;6.10;95.60;;;;;;5106722;28;20028;-56
2023/01/18 05:29:32;;;;;;;28.95;7.13;;;6.10;95.50;;;;;;5107859;28;20165;-57
2023/01/18 05:31:58;;;;;;;26.60;6.90;;;6.10;95.60;;;;;;5106119;28;20032;-56
2023/01/18 05:34:24;;;;;;;43.53;8.18;;;6.10;95.60;;;;;;5107384;28;20035;-56
2023/01/18 05:36:49;;;;;;;37.15;7.40;;;6.20;95.80;;;;;;5106026;28;20028;-56
2023/01/18 05:39:15;;;;;;;28.05;7.25;;;6.20;95.90;;;;;;5106209;28;20039;-56
2023/01/18 05:41:40;;;;;;;31.40;6.10;;;6.10;95.80;;;;;;5107001;28;20024;-56
2023/01/18 05:44:06;;;;;;;35.53;6.25;;;6.10;95.80;;;;;;5105875;28;20035;-56
2023/01/18 05:46:31;;;;;;;32.83;6.57;;;6.20;95.80;;;;;;5107337;28;20033;-56
2023/01/18 05:48:57;;;;;;;28.98;6.20;;;6.10;95.70;;;;;;5105825;28;20083;-56
2023/01/18 05:51:23;;;;;;;21.08;5.72;;;6.10;95.80;;;;;;5107377;28;20045;-56
2023/01/18 05:53:48;;;;;;;22.00;5.68;;;6.10;95.70;;;;;;5105687;28;20456;-55
2023/01/18 05:56:14;;;;;;;22.85;5.57;;;6.10;95.70;;;;;;5106971;28;20036;-56
2023/01/18 05:58:40;;;;;;;16.95;5.60;;;6.10;95.60;;;;;;5105696;28;20082;-61
2023/01/18 06:01:08;;;;;;;21.35;5.13;;;6.10;95.50;;;;;;5105847;28;20149;-56
2023/01/18 06:03:34;;;;;;;14.77;4.85;;;6.10;95.50;;;;;;5105732;28;20056;-56
2023/01/18 06:06:00;;;;;;;29.02;5.20;;;6.10;95.50;;;;;;5105567;28;20020;-56
2023/01/18 06:08:26;;;;;;;22.77;5.50;;;6.10;95.40;;;;;;5106929;28;20087;-56
2023/01/18 06:10:55;;;;;;;18.73;4.78;;;6.10;95.40;;;;;;5105560;28;20073;-56
2023/01/18 06:13:21;;;;;;;19.20;4.35;;;6.00;95.40;;;;;;5105157;28;20036;-56
2023/01/18 06:15:47;;;;;;;23.08;5.68;;;6.10;95.40;;;;;;5105523;28;20024;-56
2023/01/18 06:18:13;;;;;;;16.13;4.80;;;6.10;95.40;;;;;;5105560;28;20055;-56
2023/01/18 06:20:38;;;;;;;19.58;4.95;;;6.00;95.30;;;;;;5106685;28;20047;-56
2023/01/18 06:23:04;;;;;;;14.02;4.20;;;6.00;95.30;;;;;;5106553;28;20073;-56
2023/01/18 06:25:29;;;;;;;22.25;4.47;;;6.00;95.30;;;;;;5106326;28;20024;-57
2023/01/18 06:27:55;;;;;;;13.32;3.85;;;6.00;95.30;;;;;;5106234;28;20058;-56
2023/01/18 06:30:20;;;;;;;9.13;4.18;;;6.00;95.30;;;;;;5105244;28;20053;-56
2023/01/18 06:32:49;;;;;;;16.45;5.13;;;6.00;95.30;;;;;;5104897;28;20039;-56
2023/01/18 06:35:14;;;;;;;15.80;4.22;;;6.00;95.30;;;;;;5105018;28;20019;-56
2023/01/18 06:37:40;;;;;;;18.65;5.00;;;6.00;95.30;;;;;;5104843;28;20032;-56
2023/01/18 06:40:06;;;;;;;13.95;4.53;;;6.00;95.40;;;;;;5106248;28;20043;-55
2023/01/18 06:42:32;;;;;;;21.15;4.13;;;5.90;95.40;;;;;;5106215;28;20052;-57
2023/01/18 06:44:58;;;;;;;16.08;4.30;;;6.00;95.40;;;;;;5105064;28;20035;-56
2023/01/18 06:47:24;;;;;;;20.85;4.80;;;5.90;95.40;;;;;;5104285;28;20039;-56
2023/01/18 06:49:49;;;;;;;16.20;3.85;;;5.90;95.50;;;;;;5106140;28;20020;-56
2023/01/18 06:52:15;;;;;;;14.75;4.15;;;5.90;95.50;;;;;;5104465;28;20046;-57
2023/01/18 06:54:40;;;;;;;12.75;4.25;;;5.90;95.50;;;;;;5104714;28;20024;-56
2023/01/18 06:57:06;;;;;;;12.10;3.75;;;5.90;95.50;;;;;;5104479;28;20058;-59
2023/01/18 06:59:31;;;;;;;15.23;4.38;;;5.90;95.50;;;;;;5087408;28;20484;-56
2023/01/18 07:01:57;;;;;;;12.50;3.97;;;5.90;95.50;;;;;;5104614;28;20127;-56
2023/01/18 07:04:23;;;;;;;7.80;3.63;;;5.90;95.50;;;;;;5105657;28;20027;-56
2023/01/18 07:06:48;;;;;;;18.85;4.30;;;5.90;95.50;;;;;;5087215;28;20056;-56
2023/01/18 07:09:14;;;;;;;16.35;4.05;;;5.90;95.50;;;;;;5105635;28;20031;-56
2023/01/18 07:11:42;;;;;;;13.95;3.53;;;5.90;95.60;;;;;;5105763;28;20044;-56
2023/01/18 07:14:11;;;;;;;12.48;4.38;;;5.90;95.50;;;;;;5071182;28;20024;-56
2023/01/18 07:16:37;;;;;;;10.43;3.90;;;5.90;95.80;;;;;;5104014;28;20028;-55
2023/01/18 07:19:03;;;;;;;7.28;3.55;;;5.80;95.60;;;;;;5104118;28;20111;-56
2023/01/18 07:21:29;;;;;;;9.80;3.28;;;5.80;95.50;;;;;;5104519;28;20097;-56
2023/01/18 07:23:56;;;;;;;9.05;3.60;;;5.80;95.60;;;;;;5087292;28;20039;-57
2023/01/18 07:26:21;;;;;;;10.73;3.45;;;5.80;95.60;;;;;;5087622;28;20024;-56
2023/01/18 07:28:47;;;;;;;7.82;2.70;;;5.80;95.50;;;;;;5105145;28;20450;-56
2023/01/18 07:31:13;;;;;;;9.40;3.58;;;5.80;95.60;;;;;;5086872;28;20020;-55
2023/01/18 07:33:39;;;;;;;9.95;4.10;;;5.80;95.60;;;;;;5087012;28;20028;-55
2023/01/18 07:36:05;;;;;;;12.70;3.40;;;5.80;95.60;;;;;;5105129;28;20051;-56
2023/01/18 07:38:31;;;;;;;8.63;3.50;;;5.80;95.60;;;;;;5103532;28;20077;-55
2023/01/18 07:40:58;;;;;;;9.60;3.42;;;5.80;95.60;;;;;;5103536;28;20039;-55
2023/01/18 07:43:23;;;;;;;9.43;3.45;;;5.80;95.60;;;;;;5103590;28;20025;-55
2023/01/18 07:45:53;;;;;;;13.68;3.67;;;5.80;95.60;;;;;;5105284;28;20056;-55
2023/01/18 07:48:19;;;;;;;10.35;3.30;;;5.80;95.60;;;;;;5103359;28;20492;-55
2023/01/18 07:50:57;;;;;;;13.95;3.85;;;5.80;95.60;;;;;;5105048;28;20040;-55
2023/01/18 07:53:23;;;;;;;10.38;3.35;;;5.80;95.60;;;;;;5103712;28;20032;-56
2023/01/18 07:55:49;;;;;;;11.77;3.55;;;5.80;95.70;;;;;;5103923;28;20058;-59
2023/01/18 07:58:15;;;;;;;8.32;3.47;;;5.80;95.60;;;;;;5103613;28;20181;-55
2023/01/18 08:00:41;;;;;;;12.30;3.25;;;5.80;95.60;;;;;;5087235;28;20042;-55
2023/01/18 08:03:06;;;;;;;16.55;3.65;;;5.80;95.60;;;;;;5101806;28;20042;-55
2023/01/18 08:05:32;;;;;;;12.40;3.22;;;5.80;95.60;;;;;;5107651;28;20508;-55
2023/01/18 08:07:58;;;;;;;13.45;4.03;;;5.80;95.60;;;;;;5106792;28;20123;-55
2023/01/18 08:10:25;;;;;;;284.60;21.95;;;5.90;95.70;;;;;;5106434;28;20020;-55
2023/01/18 08:12:51;;;;;;;28.92;5.03;;;5.90;95.70;;;;;;5106909;28;20122;-55
2023/01/18 08:15:16;;;;;;;28.00;4.30;;;5.80;95.70;;;;;;5108648;28;20445;-55
2023/01/18 08:17:42;;;;;;;27.35;4.82;;;5.90;95.70;;;;;;5106966;28;20032;-55
2023/01/18 08:20:10;;;;;;;27.77;4.78;;;5.90;95.70;;;;;;5107724;28;20169;-55
2023/01/18 08:22:35;;;;;;;40.38;5.20;;;5.90;95.80;;;;;;5107080;28;20549;-55
2023/01/18 08:25:02;;;;;;;29.27;4.38;;;5.90;95.80;;;;;;5104411;28;20032;-56
2023/01/18 08:27:27;;;;;;;31.67;5.40;;;5.90;95.80;;;;;;5107115;28;20032;-54
2023/01/18 08:29:53;;;;;;;32.30;4.65;;;5.90;95.80;;;;;;5107100;28;20035;-53
2023/01/18 08:32:18;;;;;;;34.13;4.97;;;5.90;95.80;;;;;;5107166;28;20070;-54
2023/01/18 08:34:44;;;;;;;18.02;4.38;;;5.90;95.80;;;;;;5089835;28;20537;-54
2023/01/18 08:37:10;;;;;;;26.40;4.35;;;5.90;95.80;;;;;;5107953;28;20035;-54
2023/01/18 08:39:36;;;;;;;27.00;4.55;;;5.90;95.80;;;;;;5107028;28;20061;-54
2023/01/18 08:42:02;;;;;;;22.13;4.75;;;5.90;95.90;;;;;;5107364;28;20032;-54
2023/01/18 08:44:27;;;;;;;17.73;4.72;;;5.80;95.90;;;;;;5108019;28;20054;-54
2023/01/18 08:46:53;;;;;;;32.92;5.97;;;5.90;95.90;;;;;;5106164;28;20036;-53
2023/01/18 08:49:18;;;;;;;23.45;4.47;;;5.90;95.90;;;;;;5106774;28;20031;-53
2023/01/18 08:51:44;;;;;;;35.92;5.65;;;5.90;95.90;;;;;;5107040;28;20020;-57
2023/01/18 08:54:09;;;;;;;33.80;5.47;;;5.90;95.90;;;;;;5105518;28;20049;-53
2023/01/18 08:56:35;;;;;;;41.30;5.22;;;5.90;96.00;;;;;;5106131;28;20460;-53
2023/01/18 08:59:01;;;;;;;25.70;4.70;;;5.90;96.00;;;;;;5107434;28;20024;-54
2023/01/18 09:01:27;;;;;;;39.00;5.47;;;5.90;96.10;;;;;;5106623;28;20062;-53
2023/01/18 09:03:54;;;;;;;29.33;4.88;;;6.00;96.10;;;;;;5106004;28;20031;-53
2023/01/18 09:06:19;;;;;;;23.42;4.60;;;6.00;96.00;;;;;;5107424;28;20043;-53
2023/01/18 09:08:47;;;;;;;23.42;4.85;;;6.00;96.00;;;;;;5107493;28;20036;-53
2023/01/18 09:11:13;;;;;;;38.10;5.38;;;6.00;95.90;;;;;;5106317;28;20024;-53
2023/01/18 09:13:42;;;;;;;36.38;5.85;;;5.90;95.90;;;;;;5106222;28;20080;-53
2023/01/18 09:16:08;;;;;;;43.28;5.53;;;6.00;95.90;;;;;;5106397;28;20028;-53
2023/01/18 09:18:34;;;;;;;37.78;4.78;;;6.00;96.00;;;;;;5105737;28;20043;-54
2023/01/18 09:21:07;;;;;;;29.77;5.00;;;6.00;95.90;;;;;;5105913;28;20055;-61
2023/01/18 09:23:34;;;;;;;38.67;5.97;;;6.00;95.90;;;;;;5105851;28;20028;-55
2023/01/18 09:26:15;;;;;;;35.17;5.30;;;6.00;95.90;;;;;;5105672;28;20073;-53
2023/01/18 09:28:42;;;;;;;37.03;5.72;;;6.00;95.90;;;;;;5106542;28;20039;-55
2023/01/18 09:31:08;;;;;;;33.17;5.95;;;6.00;95.80;;;;;;5105597;28;20024;-51
2023/01/18 09:33:34;;;;;;;43.58;6.15;;;6.00;95.80;;;;;;5106945;28;20023;-52
2023/01/18 09:36:05;;;;;;;32.40;5.85;;;6.00;95.80;;;;;;5105318;28;20035;-52
2023/01/18 09:38:30;;;;;;;52.58;6.63;;;6.00;95.80;;;;;;5104547;28;20028;-52
2023/01/18 09:40:56;;;;;;;39.83;5.20;;;6.00;95.70;;;;;;5105070;28;20034;-52
2023/01/18 09:43:29;;;;;;;63.17;6.13;;;6.00;95.70;;;;;;5105235;28;20036;-52
2023/01/18 09:45:55;;;;;;;34.13;5.20;;;6.10;95.70;;;;;;5106695;28;20020;-52
2023/01/18 09:48:38;;;;;;;42.78;5.40;;;6.00;95.70;;;;;;5104800;28;20032;-52
2023/01/18 09:51:23;;;;;;;47.05;6.70;;;6.00;95.60;;;;;;5105226;28;20020;-52
2023/01/18 09:54:17;;;;;;;54.30;6.63;;;6.00;95.70;;;;;;5104950;28;20032;-53
2023/01/18 09:56:55;;;;;;;56.78;6.45;;;6.00;95.70;;;;;;5105265;28;20027;-53
2023/01/18 09:59:34;;;;;;;31.63;6.55;;;6.00;95.70;;;;;;5104894;28;20031;-53
2023/01/18 10:02:02;;;;;;;30.70;5.00;;;6.00;95.80;;;;;;5105061;28;20494;-53
2023/01/18 10:04:35;;;;;;;40.00;5.40;;;6.00;95.90;;;;;;5088086;28;20028;-53
2023/01/18 10:07:21;;;;;;;39.47;5.68;;;6.00;95.90;;;;;;5105193;28;20118;-52
2023/01/18 10:09:51;;;;;;;46.88;6.18;;;6.00;95.80;;;;;;5087932;28;20024;-52
2023/01/18 10:12:37;;;;;;;34.55;5.70;;;6.10;95.80;;;;;;5104974;28;20049;-53
2023/01/18 10:15:06;;;;;;;;;;;6.10;95.80;;;;;;5106867;28;20020;-53
2023/01/18 10:17:39;;;;;;;37.13;6.45;;;6.10;95.70;;;;;;5105180;28;19912;-53
2023/01/18 10:20:17;;;;;;;27.05;5.20;;;6.10;95.70;;;;;;5105101;28;20122;-53
2023/01/18 10:22:49;;;;;;;38.83;5.40;;;6.10;95.60;;;;;;5105032;28;20135;-53
2023/01/18 10:25:33;;;;;;;33.25;5.07;;;6.10;95.60;;;;;;5106225;28;20058;-53
2023/01/18 10:28:22;;;;;;;34.50;5.38;;;6.10;95.60;;;;;;5103530;28;20037;-53
2023/01/18 10:31:23;;;;;;;56.63;6.72;;;6.20;95.60;;;;;;5106063;28;20034;-53
2023/01/18 10:33:52;;;;;;;48.53;6.80;;;6.20;95.70;;;;;;5104862;28;20082;-54
2023/01/18 10:36:20;;;;;;;54.30;7.38;;;6.20;95.60;;;;;;5104558;28;20433;-53
2023/01/18 10:38:45;;;;;;;43.67;6.20;;;6.20;95.60;;;;;;5104805;28;20154;-53
2023/01/18 10:41:19;;;;;;;44.97;5.65;;;6.20;95.50;;;;;;5104486;28;20439;-53
2023/01/18 10:43:45;;;;;;;32.63;5.00;;;6.20;95.40;;;;;;5105664;28;20460;-53
2023/01/18 10:46:15;;;;;;;28.77;5.47;;;6.20;95.40;;;;;;5103158;28;20050;-54
2023/01/18 10:48:44;;;;;;;38.22;4.97;;;6.30;95.40;;;;;;5103295;28;20032;-54
2023/01/18 10:51:11;;;;;;;39.40;5.88;;;6.20;95.30;;;;;;5103626;28;20016;-54
2023/01/18 10:53:37;;;;;;;34.40;6.10;;;6.30;95.30;;;;;;5103119;28;20032;-53
2023/01/18 10:56:09;;;;;;;42.60;6.50;;;6.20;95.20;;;;;;5086305;28;20030;-53
2023/01/18 10:58:45;;;;;;;47.63;7.78;;;6.30;95.30;;;;;;5104876;28;20032;-53
2023/01/18 11:01:20;;;;;;;53.38;6.13;;;6.40;95.30;;;;;;5104164;28;20106;-53
2023/01/18 11:03:50;;;;;;;41.55;5.32;;;6.30;95.30;;;;;;5103936;28;20091;-53
2023/01/18 11:06:18;;;;;;;43.20;6.82;;;6.30;95.30;;;;;;5103808;28;20028;-54
2023/01/18 11:08:43;;;;;;;45.70;6.18;;;6.40;95.30;;;;;;5103504;28;20104;-53
2023/01/18 11:14:23;;;;;;;47.92;7.45;;;6.40;95.10;;;;;;5104903;28;20036;-54
2023/01/18 11:17:02;;;;;;;;;;;6.40;95.00;;;;;;5105087;28;20035;-54
2023/01/18 11:19:27;;;;;;;30.65;5.63;;;6.40;94.90;;;;;;5103080;28;19965;-54
2023/01/18 11:21:53;;;;;;;47.40;6.40;;;6.40;94.90;;;;;;5104710;28;20048;-54
2023/01/18 11:24:29;;;;;;;52.67;6.50;;;6.50;94.90;;;;;;5103309;28;20028;-54
2023/01/18 11:27:00;;;;;;;68.18;6.47;;;6.40;95.00;;;;;;5103184;28;20028;-54
2023/01/18 11:29:34;;;;;;;68.82;7.47;;;6.50;95.00;;;;;;5103239;28;20027;-54
2023/01/18 11:32:01;;;;;;;60.65;6.95;;;6.50;94.90;;;;;;5103317;28;20036;-54
2023/01/18 11:34:35;;;;;;;66.63;9.05;;;6.50;94.90;;;;;;5103141;28;20020;-54
2023/01/18 11:37:00;;;;;;;56.17;9.35;;;6.50;94.90;;;;;;5103170;28;20127;-54
2023/01/18 11:39:30;;;;;;;83.20;9.63;;;6.60;94.90;;;;;;5102860;28;20035;-55
2023/01/18 11:42:21;;;;;;;88.78;9.63;;;6.60;94.80;;;;;;5104650;28;20040;-55
2023/01/18 11:45:18;;;;;;;74.65;8.38;;;6.60;94.80;;;;;;5086341;28;20032;-55
2023/01/18 11:48:03;;;;;;;69.65;8.70;;;6.60;94.70;;;;;;5086287;28;20090;-54
2023/01/18 11:50:34;;;;;;;61.38;8.38;;;6.60;94.60;;;;;;5103118;28;20431;-54
2023/01/18 11:53:22;;;;;;;58.33;8.38;;;6.60;94.40;;;;;;5104358;28;20027;-55
2023/01/18 11:56:04;;;;;;;75.03;8.73;;;6.70;94.40;;;;;;5103127;28;20038;-55
2023/01/18 11:58:30;;;;;;;86.82;9.43;;;6.60;94.40;;;;;;5103548;28;20073;-57
2023/01/18 12:01:20;;;;;;;60.20;8.57;;;6.70;94.40;;;;;;5086054;28;20028;-58
2023/01/18 12:04:17;;;;;;;94.88;9.10;;;6.70;94.50;;;;;;5104837;28;20162;-56
2023/01/18 12:06:56;;;;;;;64.88;6.90;;;6.70;94.40;;;;;;5100964;28;20096;-58
2023/01/18 12:09:45;;;;;;;66.10;8.48;;;6.70;94.30;;;;;;5102891;28;20077;-58
2023/01/18 12:12:46;;;;;;;47.22;6.65;;;6.70;94.20;;;;;;5103249;28;20028;-58
2023/01/18 12:15:27;;;;;;;40.35;5.80;;;6.70;94.00;;;;;;5103166;28;20027;-58
2023/01/18 12:18:14;;;;;;;92.38;11.15;;;6.70;94.20;;;;;;5103371;28;20036;-58
2023/01/18 12:21:05;;;;;;;74.82;7.72;;;6.70;93.90;;;;;;5104535;28;20040;-58
2023/01/18 12:23:43;;;;;;;60.03;7.40;;;6.60;93.80;;;;;;5096841;28;20028;-58
2023/01/18 12:26:32;;;;;;;104.03;11.68;;;6.60;93.60;;;;;;5098744;28;20036;-58
2023/01/18 12:29:22;;;;;;;62.67;8.32;;;6.60;93.70;;;;;;5086302;28;20123;-58
2023/01/18 12:32:13;;;;;;;66.30;7.65;;;6.60;93.70;;;;;;5086391;28;20067;-58
2023/01/18 12:35:16;;;;;;;176.38;15.27;;;6.60;93.60;;;;;;5085921;28;20111;-58
2023/01/18 12:37:45;;;;;;;73.93;9.18;;;6.60;93.60;;;;;;5103458;28;20032;-61
2023/01/18 12:40:34;;;;;;;122.75;13.45;;;6.60;93.60;;;;;;5104244;28;20039;-63
2023/01/18 12:43:09;;;;;;;92.95;10.73;;;6.60;93.60;;;;;;5104054;28;20039;-59
2023/01/18 12:45:37;;;;;;;139.68;14.77;;;6.60;93.60;;;;;;5104471;28;20038;-57
2023/01/18 12:48:23;;;;;;;125.28;12.57;;;6.70;93.50;;;;;;5104209;28;20059;-59
2023/01/18 12:50:49;;;;;;;103.25;10.43;;;6.70;93.50;;;;;;5104056;28;20145;-61
2023/01/18 12:53:34;;;;;;;233.88;23.10;;;6.70;93.40;;;;;;5107129;28;20130;-57
2023/01/18 12:56:03;;;;;;;96.87;13.70;;;6.70;93.40;;;;;;5106850;28;20024;-58
2023/01/18 12:58:29;;;;;;;100.43;11.93;;;6.70;93.50;;;;;;5106757;28;20181;-58
2023/01/18 13:00:59;;;;;;;124.25;14.25;;;6.70;93.50;;;;;;5106363;28;20028;-58
2023/01/18 13:03:28;;;;;;;124.47;14.00;;;6.70;93.50;;;;;;5106384;28;20050;-58
2023/01/18 13:06:01;;;;;;;201.57;21.80;;;6.70;93.50;;;;;;5106416;28;20032;-58
2023/01/18 13:08:39;;;;;;;116.55;14.63;;;6.70;93.50;;;;;;5106367;28;20128;-58
2023/01/18 13:11:07;;;;;;;86.85;11.35;;;6.70;93.40;;;;;;5107332;28;20379;-58
2023/01/18 13:13:32;;;;;;;109.30;12.85;;;6.70;93.40;;;;;;5106699;28;20084;-58
2023/01/18 13:16:11;;;;;;;154.85;17.52;;;6.80;93.40;;;;;;5086742;28;20066;-58
2023/01/18 13:19:11;;;;;;;156.70;21.65;;;6.80;93.20;;;;;;5073458;28;20346;-58
2023/01/18 13:21:55;;;;;;;121.18;14.38;;;6.80;93.20;;;;;;5099811;28;20338;-58
2023/01/18 13:24:47;;;;;;;103.50;12.82;;;6.80;93.10;;;;;;5121516;28;20036;-58
2023/01/18 13:27:14;;;;;;;108.55;13.55;;;6.90;93.10;;;;;;5112393;28;20055;-58
2023/01/18 13:29:40;;;;;;;139.75;14.75;;;6.90;93.00;;;;;;5094778;28;20040;-58
2023/01/18 13:32:32;;;;;;;85.22;11.73;;;6.90;93.00;;;;;;5088380;28;20028;-58
2023/01/18 13:35:01;;;;;;;65.90;9.65;;;6.90;93.00;;;;;;5094045;28;20104;-57